createdAt,value
2018-09-15T00:02:21.707Z,17.53
2018-09-15T00:05:03.362Z,19.20
2018-09-15T00:07:44.021Z,18.27
2018-09-15T00:10:24.745Z,14.70
2018-09-15T00:13:05.416Z,16.20
2018-09-15T00:15:46.125Z,13.43
2018-09-15T00:18:26.802Z,10.93
2018-09-15T00:21:07.382Z,18.00
2018-09-15T00:23:48.166Z,10.47
2018-09-15T00:26:29.611Z,10.90
2018-09-15T00:29:10.162Z,12.77
2018-09-15T00:31:50.948Z,10.20
2018-09-15T00:34:31.520Z,11.27
2018-09-15T00:37:12.318Z,11.57
2018-09-15T00:39:52.825Z,16.70
2018-09-15T00:42:33.550Z,18.97
2018-09-15T00:45:14.253Z,14.60
2018-09-15T00:47:54.901Z,12.23
2018-09-15T00:50:35.468Z,12.03
2018-09-15T00:53:16.147Z,10.67
2018-09-15T00:55:56.748Z,11.80
2018-09-15T00:58:37.571Z,10.43
2018-09-15T01:01:18.366Z,29.60
2018-09-15T01:03:59.007Z,15.80
2018-09-15T01:06:39.666Z,8.60
2018-09-15T01:09:20.392Z,12.17
2018-09-15T01:12:01.530Z,14.20
2018-09-15T01:14:43.044Z,23.00
2018-09-15T01:17:24.244Z,15.70
2018-09-15T01:20:05.158Z,15.57
2018-09-15T01:22:45.810Z,16.70
2018-09-15T01:25:26.474Z,25.17
2018-09-15T01:28:07.021Z,22.00
2018-09-15T01:30:47.642Z,28.83
2018-09-15T01:33:28.286Z,23.67
2018-09-15T01:36:08.880Z,21.10
2018-09-15T01:38:49.750Z,29.47
2018-09-15T01:41:31.156Z,41.77
2018-09-15T01:44:11.935Z,28.73
2018-09-15T01:46:52.509Z,30.57
2018-09-15T01:49:33.289Z,37.07
2018-09-15T01:52:14.024Z,32.77
2018-09-15T01:54:55.406Z,40.70
2018-09-15T01:57:36.197Z,29.40
2018-09-15T02:00:16.824Z,37.40
2018-09-15T02:02:57.428Z,36.80
2018-09-15T02:05:38.014Z,32.70
2018-09-15T02:08:19.438Z,27.63
2018-09-15T02:11:00.193Z,29.80
2018-09-15T02:13:40.960Z,33.50
2018-09-15T02:16:22.437Z,23.63
2018-09-15T02:19:03.135Z,30.80
2018-09-15T02:21:44.023Z,25.83
2018-09-15T02:24:24.830Z,33.43
2018-09-15T02:27:05.487Z,34.40
2018-09-15T02:29:46.202Z,30.03
2018-09-15T02:32:26.774Z,39.00
2018-09-15T02:35:07.362Z,24.90
2018-09-15T02:37:48.242Z,22.60
2018-09-15T02:40:29.106Z,31.93
2018-09-15T02:43:10.454Z,25.67
2018-09-15T02:45:51.302Z,38.87
2018-09-15T02:48:32.567Z,35.33
2018-09-15T02:51:13.857Z,30.23
2018-09-15T02:53:54.387Z,36.53
2018-09-15T02:56:35.253Z,32.93
2018-09-15T02:59:16.002Z,22.93
2018-09-15T03:01:56.793Z,31.43
2018-09-15T03:04:37.327Z,17.33
2018-09-15T03:07:18.176Z,28.53
2018-09-15T03:09:58.985Z,27.63
2018-09-15T03:12:40.542Z,32.97
2018-09-15T03:15:21.409Z,27.50
2018-09-15T03:18:03.643Z,29.10
2018-09-15T03:20:44.427Z,24.73
2018-09-15T03:23:24.996Z,25.60
2018-09-15T03:26:05.969Z,39.13
2018-09-15T03:28:46.790Z,35.33
2018-09-15T03:31:27.968Z,26.57
2018-09-15T03:34:08.842Z,27.80
2018-09-15T03:36:50.064Z,23.60
2018-09-15T03:39:31.186Z,15.47
2018-09-15T03:42:11.817Z,21.97
2018-09-15T03:44:52.404Z,26.20
2018-09-15T03:47:32.990Z,27.57
2018-09-15T03:50:13.602Z,30.43
2018-09-15T03:52:54.354Z,23.63
2018-09-15T03:55:34.939Z,26.30
2018-09-15T03:58:15.749Z,18.37
2018-09-15T04:00:56.488Z,15.93
2018-09-15T04:03:37.343Z,14.17
2018-09-15T04:06:17.997Z,42.77
2018-09-15T04:08:58.769Z,30.03
2018-09-15T04:11:39.634Z,29.70
2018-09-15T04:14:20.243Z,16.20
2018-09-15T04:17:00.735Z,24.07
2018-09-15T04:19:41.409Z,23.13
2018-09-15T04:22:22.162Z,21.27
2018-09-15T04:25:02.756Z,40.57
2018-09-15T04:27:43.509Z,34.73
2018-09-15T04:30:24.180Z,21.50
2018-09-15T04:33:04.912Z,29.43
2018-09-15T04:35:45.563Z,29.90
2018-09-15T04:38:26.666Z,22.37
2018-09-15T04:41:07.546Z,26.57
2018-09-15T04:43:48.836Z,23.80
2018-09-15T04:46:29.620Z,21.00
2018-09-15T04:49:10.584Z,25.90
2018-09-15T04:51:51.617Z,25.57
2018-09-15T04:54:32.954Z,17.53
2018-09-15T04:57:13.783Z,17.80
2018-09-15T04:59:54.566Z,15.80
2018-09-15T05:02:35.270Z,26.87
2018-09-15T05:05:16.032Z,24.30
2018-09-15T05:07:56.607Z,21.30
2018-09-15T05:10:37.477Z,16.33
2018-09-15T05:13:18.909Z,14.17
2018-09-15T05:15:59.994Z,13.57
2018-09-15T05:18:41.329Z,13.20
2018-09-15T05:21:21.872Z,13.00
2018-09-15T05:24:02.401Z,18.00
2018-09-15T05:26:43.140Z,16.40
2018-09-15T05:29:23.805Z,17.23
2018-09-15T05:32:04.473Z,17.80
2018-09-15T05:34:45.270Z,14.57
2018-09-15T05:37:26.003Z,26.70
2018-09-15T05:40:06.485Z,18.87
2018-09-15T05:42:47.419Z,17.37
2018-09-15T05:45:27.895Z,11.97
2018-09-15T05:48:08.652Z,21.43
2018-09-15T05:50:49.248Z,11.90
2018-09-15T05:53:29.997Z,9.27
2018-09-15T05:56:10.987Z,14.57
2018-09-15T05:58:51.580Z,11.60
2018-09-15T06:01:32.273Z,8.30
2018-09-15T06:04:12.826Z,12.20
2018-09-15T06:06:53.629Z,8.90
2018-09-15T06:09:34.213Z,10.33
2018-09-15T06:12:15.057Z,7.00
2018-09-15T06:14:56.353Z,7.53
2018-09-15T06:17:37.200Z,7.93
2018-09-15T06:20:17.920Z,8.60
2018-09-15T06:22:58.533Z,8.80
2018-09-15T06:25:39.306Z,11.33
2018-09-15T06:28:20.088Z,6.07
2018-09-15T06:31:00.700Z,23.87
2018-09-15T06:33:41.442Z,8.70
2018-09-15T06:36:22.063Z,10.77
2018-09-15T06:39:02.985Z,10.93
2018-09-15T06:41:44.410Z,7.67
2018-09-15T06:44:24.980Z,7.40
2018-09-15T06:47:05.786Z,14.63
2018-09-15T06:49:46.238Z,5.57
2018-09-15T06:52:26.906Z,7.53
2018-09-15T06:55:07.940Z,8.90
2018-09-15T06:57:49.095Z,8.27
2018-09-15T07:00:29.855Z,9.07
2018-09-15T07:03:10.748Z,11.60
2018-09-15T07:05:52.342Z,8.50
2018-09-15T07:08:32.838Z,12.33
2018-09-15T07:11:13.518Z,11.13
2018-09-15T07:13:54.065Z,9.77
2018-09-15T07:16:35.163Z,6.83
2018-09-15T07:19:16.354Z,8.77
2018-09-15T07:21:56.938Z,16.93
2018-09-15T07:24:38.193Z,8.60
2018-09-15T07:27:19.865Z,6.63
2018-09-15T07:30:00.877Z,7.70
2018-09-15T07:32:41.461Z,8.30
2018-09-15T07:35:22.007Z,9.80
2018-09-15T07:38:02.827Z,8.57
2018-09-15T07:40:43.480Z,10.47
2018-09-15T07:43:24.213Z,6.00
2018-09-15T07:46:04.772Z,30.77
2018-09-15T07:48:45.410Z,13.57
2018-09-15T07:51:25.926Z,15.17
2018-09-15T07:54:06.517Z,8.67
2018-09-15T07:56:47.313Z,5.87
2018-09-15T07:59:28.232Z,6.70
2018-09-15T08:02:14.834Z,6.57
2018-09-15T08:04:56.398Z,7.17
2018-09-15T08:07:37.769Z,7.97
2018-09-15T08:10:18.430Z,7.00
2018-09-15T08:12:58.976Z,6.13
2018-09-15T08:15:39.573Z,6.80
2018-09-15T08:18:20.455Z,6.73
2018-09-15T08:21:01.950Z,11.90
2018-09-15T08:23:42.628Z,7.03
2018-09-15T08:26:23.143Z,8.90
2018-09-15T08:29:03.751Z,7.97
2018-09-15T08:31:44.342Z,17.83
2018-09-15T08:34:24.889Z,6.83
2018-09-15T08:37:05.636Z,7.77
2018-09-15T08:39:46.376Z,8.77
2018-09-15T08:42:26.880Z,11.23
2018-09-15T08:45:07.580Z,7.00
2018-09-15T08:47:48.287Z,7.80
2018-09-15T08:50:28.969Z,8.43
2018-09-15T08:53:09.593Z,18.97
2018-09-15T08:55:50.420Z,14.20
2018-09-15T08:58:30.858Z,8.57
2018-09-15T09:01:11.604Z,11.57
2018-09-15T09:03:52.254Z,6.90
2018-09-15T09:06:32.921Z,5.83
2018-09-15T09:09:13.892Z,7.30
2018-09-15T09:11:55.245Z,5.60
2018-09-15T09:14:35.836Z,6.90
2018-09-15T09:17:16.578Z,6.50
2018-09-15T09:19:57.172Z,6.63
2018-09-15T09:22:37.893Z,6.07
2018-09-15T09:25:19.034Z,10.07
2018-09-15T09:28:00.169Z,11.20
2018-09-15T09:30:40.890Z,6.53
2018-09-15T09:33:22.129Z,10.83
2018-09-15T09:36:03.215Z,7.37
2018-09-15T09:38:43.803Z,12.00
2018-09-15T09:41:24.576Z,13.20
2018-09-15T09:44:05.077Z,22.13
2018-09-15T09:46:45.758Z,18.67
2018-09-15T09:49:26.472Z,10.90
2018-09-15T09:52:07.878Z,16.00
2018-09-15T09:54:48.617Z,12.37
2018-09-15T09:57:29.053Z,12.20
2018-09-15T10:00:12.461Z,8.13
2018-09-15T10:02:53.344Z,7.10
2018-09-15T10:05:33.803Z,5.27
2018-09-15T10:08:14.762Z,8.00
2018-09-15T10:10:55.384Z,2.70
2018-09-15T10:13:36.225Z,3.13
2018-09-15T10:16:16.975Z,4.67
2018-09-15T10:18:57.509Z,3.83
2018-09-15T10:21:38.193Z,4.97
2018-09-15T10:24:18.853Z,6.73
2018-09-15T10:26:59.439Z,4.30
2018-09-15T10:29:40.163Z,10.33
2018-09-15T10:32:20.722Z,5.23
2018-09-15T10:35:01.449Z,6.00
2018-09-15T10:37:42.141Z,4.33
2018-09-15T10:40:22.708Z,7.50
2018-09-15T10:43:03.127Z,6.60
2018-09-15T10:45:43.706Z,4.00
2018-09-15T10:48:24.454Z,7.63
2018-09-15T10:51:05.870Z,5.30
2018-09-15T10:53:46.470Z,3.40
2018-09-15T10:56:27.119Z,4.23
2018-09-15T10:59:07.680Z,2.23
2018-09-15T11:01:48.301Z,2.57
2018-09-15T11:04:29.092Z,2.73
2018-09-15T11:07:09.661Z,2.60
2018-09-15T11:09:50.390Z,5.37
2018-09-15T11:12:31.109Z,6.00
2018-09-15T11:15:11.709Z,3.07
2018-09-15T11:17:52.352Z,9.73
2018-09-15T11:20:33.821Z,5.20
2018-09-15T11:23:14.370Z,5.90
2018-09-15T11:25:55.077Z,8.20
2018-09-15T11:28:36.619Z,8.80
2018-09-15T11:31:18.686Z,3.73
2018-09-15T11:33:59.814Z,3.43
2018-09-15T11:36:40.328Z,4.80
2018-09-15T11:39:20.890Z,4.07
2018-09-15T11:42:01.848Z,3.10
2018-09-15T11:44:42.778Z,8.70
2018-09-15T11:47:23.842Z,4.03
2018-09-15T11:50:05.180Z,2.23
2018-09-15T11:52:45.955Z,4.10
2018-09-15T11:55:26.725Z,3.57
2018-09-15T11:58:07.438Z,12.37
2018-09-15T12:00:54.027Z,8.17
2018-09-15T12:03:35.030Z,11.13
2018-09-15T12:06:16.242Z,6.50
2018-09-15T12:08:57.275Z,3.90
2018-09-15T12:11:39.100Z,17.47
2018-09-15T12:14:20.561Z,5.23
2018-09-15T12:17:01.093Z,4.30
2018-09-15T12:19:41.753Z,7.03
2018-09-15T12:22:22.518Z,7.50
2018-09-15T12:25:03.173Z,11.17
2018-09-15T12:27:43.822Z,5.70
2018-09-15T12:30:24.407Z,6.50
2018-09-15T12:33:05.010Z,5.13
2018-09-15T12:35:45.694Z,3.83
2018-09-15T12:38:26.391Z,6.30
2018-09-15T12:41:06.903Z,9.80
2018-09-15T12:43:47.589Z,10.13
2018-09-15T12:46:28.286Z,4.43
2018-09-15T12:49:08.923Z,5.53
2018-09-15T12:51:49.858Z,4.43
2018-09-15T12:54:31.242Z,3.80
2018-09-15T12:57:11.874Z,10.23
2018-09-15T12:59:54.068Z,6.57
2018-09-15T13:02:35.214Z,5.77
2018-09-15T13:05:16.660Z,5.43
2018-09-15T13:07:57.269Z,9.73
2018-09-15T13:10:37.840Z,3.57
2018-09-15T13:13:18.422Z,5.20
2018-09-15T13:15:59.073Z,7.53
2018-09-15T13:18:39.882Z,7.03
2018-09-15T13:21:20.675Z,4.47
2018-09-15T13:24:01.311Z,8.87
2018-09-15T13:26:41.790Z,8.13
2018-09-15T13:29:22.592Z,7.17
2018-09-15T13:32:03.507Z,6.80
2018-09-15T13:34:45.033Z,9.20
2018-09-15T13:37:25.707Z,3.90
2018-09-15T13:40:06.383Z,7.33
2018-09-15T13:42:47.110Z,7.27
2018-09-15T13:45:27.725Z,5.10
2018-09-15T13:48:08.541Z,5.33
2018-09-15T13:50:49.073Z,8.83
2018-09-15T13:53:29.769Z,13.33
2018-09-15T13:56:10.247Z,5.43
2018-09-15T13:58:51.421Z,3.67
2018-09-15T14:01:31.942Z,5.77
2018-09-15T14:04:12.705Z,13.37
2018-09-15T14:06:54.366Z,3.57
2018-09-15T14:09:43.290Z,17.77
2018-09-15T14:12:16.608Z,8.30
2018-09-15T14:14:57.426Z,8.27
2018-09-15T14:17:38.854Z,9.07
2018-09-15T14:20:19.439Z,8.30
2018-09-15T14:23:00.540Z,5.07
2018-09-15T14:25:41.644Z,7.70
2018-09-15T14:28:22.439Z,7.97
2018-09-15T14:31:03.025Z,5.97
2018-09-15T14:33:43.599Z,3.50
2018-09-15T14:36:24.062Z,7.23
2018-09-15T14:39:05.530Z,19.97
2018-09-15T14:41:46.737Z,16.10
2018-09-15T14:44:28.140Z,15.17
2018-09-15T14:47:15.345Z,10.63
2018-09-15T14:49:57.209Z,6.13
2018-09-15T14:52:38.547Z,3.30
2018-09-15T14:55:20.218Z,6.13
2018-09-15T14:58:00.611Z,20.20
2018-09-15T15:00:41.373Z,6.67
2018-09-15T15:03:21.902Z,9.47
2018-09-15T15:06:02.490Z,8.83
2018-09-15T15:08:43.053Z,10.13
2018-09-15T15:11:23.838Z,6.70
2018-09-15T15:14:04.546Z,10.93
2018-09-15T15:16:45.157Z,10.80
2018-09-15T15:19:25.848Z,14.03
2018-09-15T15:22:06.774Z,10.63
2018-09-15T15:24:47.589Z,3.40
2018-09-15T15:27:28.127Z,11.00
2018-09-15T15:30:08.978Z,10.80
2018-09-15T15:32:49.489Z,6.97
2018-09-15T15:35:30.347Z,16.80
2018-09-15T15:38:10.960Z,9.10
2018-09-15T15:40:52.525Z,6.90
2018-09-15T15:43:34.154Z,15.40
2018-09-15T15:46:14.675Z,4.53
2018-09-15T15:48:55.248Z,7.40
2018-09-15T15:51:35.794Z,4.60
2018-09-15T15:54:16.457Z,3.70
2018-09-15T15:56:57.040Z,5.03
2018-09-15T15:59:37.948Z,7.70
2018-09-15T16:02:19.318Z,5.87
2018-09-15T16:05:00.271Z,5.90
2018-09-15T16:07:41.172Z,5.57
2018-09-15T16:10:22.681Z,5.33
2018-09-15T16:13:03.392Z,10.23
2018-09-15T16:15:43.884Z,6.13
2018-09-15T16:18:24.550Z,8.23
2018-09-15T16:21:05.454Z,5.90
2018-09-15T16:23:46.497Z,5.43
2018-09-15T16:26:27.170Z,8.73
2018-09-15T16:29:07.729Z,13.50
2018-09-15T16:31:48.615Z,14.77
2018-09-15T16:34:29.382Z,5.00
2018-09-15T16:37:10.077Z,5.67
2018-09-15T16:39:51.534Z,5.10
2018-09-15T16:42:32.182Z,7.00
2018-09-15T16:45:12.990Z,5.27
2018-09-15T16:47:53.551Z,3.07
2018-09-15T16:50:34.226Z,7.70
2018-09-15T16:53:14.870Z,3.10
2018-09-15T16:55:55.385Z,4.77
2018-09-15T16:58:36.127Z,4.80
2018-09-15T17:01:16.745Z,8.23
2018-09-15T17:03:57.488Z,4.17
2018-09-15T17:06:38.188Z,3.20
2018-09-15T17:09:19.649Z,3.47
2018-09-15T17:12:00.479Z,3.80
2018-09-15T17:14:41.211Z,4.37
2018-09-15T17:17:21.825Z,2.50
2018-09-15T17:20:02.518Z,5.70
2018-09-15T17:22:43.200Z,3.33
2018-09-15T17:25:24.637Z,4.30
2018-09-15T17:28:05.408Z,11.03
2018-09-15T17:30:46.161Z,6.50
2018-09-15T17:33:26.704Z,7.97
2018-09-15T17:36:07.537Z,5.03
2018-09-15T17:38:49.141Z,9.70
2018-09-15T17:41:30.706Z,6.50
2018-09-15T17:44:11.293Z,4.20
2018-09-15T17:46:52.069Z,6.93
2018-09-15T17:49:32.688Z,5.20
2018-09-15T17:52:14.050Z,17.37
2018-09-15T17:54:54.816Z,6.40
2018-09-15T17:57:35.286Z,16.97
2018-09-15T18:00:16.697Z,7.63
2018-09-15T18:02:57.529Z,4.70
2018-09-15T18:05:39.274Z,11.03
2018-09-15T18:08:20.531Z,4.17
2018-09-15T18:11:01.223Z,6.40
2018-09-15T18:13:42.322Z,7.63
2018-09-15T18:16:23.584Z,5.67
2018-09-15T18:19:04.164Z,13.93
2018-09-15T18:21:45.222Z,8.83
2018-09-15T18:24:26.675Z,4.67
2018-09-15T18:27:07.365Z,8.53
2018-09-15T18:29:48.073Z,5.70
2018-09-15T18:32:28.778Z,6.40
2018-09-15T18:35:09.393Z,9.60
2018-09-15T18:37:49.971Z,6.40
2018-09-15T18:40:30.805Z,4.40
2018-09-15T18:43:11.520Z,9.30
2018-09-15T18:45:52.175Z,10.97
2018-09-15T18:48:33.546Z,8.87
2018-09-15T18:51:14.182Z,15.33
2018-09-15T18:53:54.808Z,6.13
2018-09-15T18:56:36.247Z,9.97
2018-09-15T18:59:16.951Z,4.20
2018-09-15T19:01:58.073Z,12.90
2018-09-15T19:04:39.061Z,5.53
2018-09-15T19:07:19.709Z,4.40
2018-09-15T19:10:00.807Z,5.23
2018-09-15T19:12:42.219Z,6.00
2018-09-15T19:15:22.998Z,4.70
2018-09-15T19:18:04.460Z,12.03
2018-09-15T19:20:45.062Z,8.70
2018-09-15T19:23:25.609Z,8.67
2018-09-15T19:26:06.745Z,9.17
2018-09-15T19:28:48.034Z,13.10
2018-09-15T19:31:29.427Z,14.93
2018-09-15T19:34:10.142Z,8.90
2018-09-15T19:36:50.984Z,6.93
2018-09-15T19:39:31.840Z,4.50
2018-09-15T19:42:13.205Z,7.70
2018-09-15T19:44:54.050Z,10.33
2018-09-15T19:47:34.593Z,6.67
2018-09-15T19:50:15.428Z,11.13
2018-09-15T19:52:56.063Z,3.60
2018-09-15T19:55:36.987Z,6.03
2018-09-15T19:58:19.477Z,4.70
2018-09-15T20:01:00.145Z,8.63
2018-09-15T20:03:40.933Z,4.27
2018-09-15T20:06:21.669Z,7.83
2018-09-15T20:09:03.010Z,3.87
2018-09-15T20:11:43.899Z,10.47
2018-09-15T20:14:25.323Z,6.83
2018-09-15T20:17:06.081Z,3.90
2018-09-15T20:19:46.871Z,3.47
2018-09-15T20:22:28.338Z,7.90
2018-09-15T20:25:09.484Z,7.37
2018-09-15T20:27:50.154Z,4.30
2018-09-15T20:30:32.190Z,8.80
2018-09-15T20:33:13.312Z,5.57
2018-09-15T20:35:53.928Z,7.83
2018-09-15T20:38:34.698Z,9.20
2018-09-15T20:41:16.126Z,13.17
2018-09-15T20:43:56.865Z,6.10
2018-09-15T20:46:37.565Z,6.10
2018-09-15T20:49:18.374Z,5.07
2018-09-15T20:51:58.971Z,4.83
2018-09-15T20:54:39.835Z,5.10
2018-09-15T20:57:20.787Z,12.17
2018-09-15T21:00:01.482Z,10.00
2018-09-15T21:02:43.090Z,8.27
2018-09-15T21:05:24.542Z,13.87
2018-09-15T21:08:05.461Z,6.10
2018-09-15T21:10:45.890Z,5.70
2018-09-15T21:13:26.726Z,8.10
2018-09-15T21:16:07.757Z,8.20
2018-09-15T21:18:48.274Z,5.07
2018-09-15T21:21:28.946Z,4.03
2018-09-15T21:24:10.421Z,3.93
2018-09-15T21:26:51.072Z,6.00
2018-09-15T21:29:31.708Z,7.90
2018-09-15T21:32:12.396Z,5.40
2018-09-15T21:34:53.223Z,6.47
2018-09-15T21:37:34.564Z,10.87
2018-09-15T21:40:15.415Z,6.30
2018-09-15T21:42:55.999Z,10.57
2018-09-15T21:45:37.510Z,11.43
2018-09-15T21:48:17.987Z,6.30
2018-09-15T21:50:58.679Z,12.73
2018-09-15T21:53:39.306Z,6.27
2018-09-15T21:56:19.873Z,9.53
2018-09-15T21:59:00.425Z,14.27
2018-09-15T22:01:41.265Z,18.50
2018-09-15T22:04:23.127Z,24.77
2018-09-15T22:07:03.636Z,18.30
2018-09-15T22:09:45.049Z,15.17
2018-09-15T22:12:25.823Z,27.20
2018-09-15T22:15:10.521Z,14.97
2018-09-15T22:17:51.358Z,10.47
2018-09-15T22:20:32.250Z,20.43
2018-09-15T22:23:14.043Z,12.50
2018-09-15T22:25:55.182Z,8.67
2018-09-15T22:28:36.650Z,8.17
2018-09-15T22:31:17.278Z,8.30
2018-09-15T22:33:58.539Z,8.47
2018-09-15T22:36:39.830Z,8.10
2018-09-15T22:39:20.695Z,8.20
2018-09-15T22:42:01.531Z,8.70
2018-09-15T22:44:42.593Z,8.63
2018-09-15T22:47:23.600Z,9.73
2018-09-15T22:50:04.745Z,9.03
2018-09-15T22:52:45.749Z,11.87
2018-09-15T22:55:26.590Z,19.53
2018-09-15T22:58:07.129Z,10.40
2018-09-15T23:00:47.735Z,13.30
2018-09-15T23:03:28.862Z,17.37
2018-09-15T23:06:09.363Z,25.47
2018-09-15T23:08:49.965Z,19.57
2018-09-15T23:11:30.642Z,23.30
2018-09-15T23:14:12.318Z,21.00
2018-09-15T23:16:53.074Z,23.20
2018-09-15T23:19:34.129Z,18.60
2018-09-15T23:22:15.111Z,21.07
2018-09-15T23:24:55.620Z,27.50
2018-09-15T23:27:36.859Z,14.20
2018-09-15T23:30:18.046Z,13.67
2018-09-15T23:32:58.486Z,12.27
2018-09-15T23:35:39.326Z,14.27
2018-09-15T23:38:19.836Z,13.83
2018-09-15T23:41:00.667Z,12.67
2018-09-15T23:43:41.989Z,14.30
2018-09-15T23:46:22.583Z,13.80
2018-09-15T23:49:03.552Z,12.60
2018-09-15T23:51:44.823Z,14.07
2018-09-15T23:54:25.385Z,18.90
2018-09-15T23:57:06.164Z,13.47
2018-09-15T23:59:46.856Z,13.73
